TimeMST,TemperatureF,Dew PointF,Humidity,Sea Level PressureIn,VisibilityMPH,Wind Direction,Wind SpeedMPH,Gust SpeedMPH,PrecipitationIn,Events,Conditions,WindDirDegrees,DateUTC
12:16 AM,32.0,32.0,100,29.81,-9999.0,Calm,Calm,-,N/A,Snow,Light Snow,0,2013-01-27 07:16:00
12:36 AM,32.0,32.0,100,29.81,-9999.0,Calm,Calm,-,N/A,Snow,Light Snow,0,2013-01-27 07:36:00
12:56 AM,33.8,32.0,93,29.81,-9999.0,East,3.5,-,N/A,Snow,Light Snow,100,2013-01-27 07:56:00
1:16 AM,33.8,32.0,93,29.81,-9999.0,Calm,Calm,-,0.01,Snow,Light Snow,0,2013-01-27 08:16:00
1:36 AM,33.8,32.0,93,29.81,-9999.0,SE,3.5,-,0.01,Rain,Light Rain,130,2013-01-27 08:36:00
1:56 AM,33.8,32.0,93,29.81,-9999.0,Calm,Calm,-,0.01,,Drizzle,0,2013-01-27 08:56:00
2:16 AM,33.8,32.0,93,29.81,-9999.0,West,6.9,-,N/A,,Unknown,260,2013-01-27 09:16:00
2:36 AM,35.6,32.0,87,29.81,-9999.0,West,9.2,-,N/A,,Unknown,260,2013-01-27 09:36:00
2:56 AM,35.6,32.0,87,29.81,-9999.0,West,8.1,-,N/A,,Light Drizzle,270,2013-01-27 09:56:00
3:16 AM,35.6,32.0,87,29.81,-9999.0,West,8.1,-,N/A,,Overcast,270,2013-01-27 10:16:00
3:35 AM,35.6,32.0,87,29.80,-9999.0,West,9.2,18.4,N/A,Rain,Light Rain,260,2013-01-27 10:35:00
3:55 AM,35.6,32.0,87,29.81,-9999.0,West,10.4,-,N/A,,Overcast,260,2013-01-27 10:55:00
4:16 AM,35.6,30.2,81,29.81,-9999.0,West,6.9,-,N/A,,Overcast,270,2013-01-27 11:16:00
4:36 AM,35.6,32.0,87,29.81,-9999.0,SW,11.5,16.1,N/A,Rain,Light Rain,220,2013-01-27 11:36:00
5:16 AM,35.6,32.0,87,29.82,-9999.0,SSW,3.5,-,N/A,,Overcast,200,2013-01-27 12:16:00
5:36 AM,35.6,30.2,81,29.82,-9999.0,SSW,4.6,-,N/A,Rain,Light Rain,200,2013-01-27 12:36:00
5:56 AM,35.6,30.2,81,29.82,-9999.0,South,4.6,-,N/A,,Overcast,170,2013-01-27 12:56:00
6:16 AM,35.6,32.0,87,29.83,-9999.0,SW,3.5,-,N/A,,Overcast,220,2013-01-27 13:16:00
6:36 AM,35.6,30.2,81,29.83,-9999.0,West,4.6,-,N/A,,Overcast,260,2013-01-27 13:36:00
6:55 AM,35.6,30.2,81,29.84,-9999.0,Calm,Calm,-,N/A,,Overcast,0,2013-01-27 13:55:00
7:16 AM,35.6,30.2,81,29.84,-9999.0,South,4.6,-,N/A,,Overcast,170,2013-01-27 14:16:00
7:36 AM,33.8,30.2,87,29.85,-9999.0,South,3.5,-,N/A,,Overcast,190,2013-01-27 14:36:00
7:56 AM,35.6,30.2,81,29.84,-9999.0,SSW,5.8,-,N/A,,Overcast,200,2013-01-27 14:56:00
8:16 AM,35.6,28.4,75,29.84,-9999.0,WSW,9.2,-,N/A,,Overcast,250,2013-01-27 15:16:00
8:36 AM,35.6,30.2,81,29.85,-9999.0,WSW,11.5,16.1,N/A,,Overcast,250,2013-01-27 15:36:00
8:56 AM,35.6,30.2,81,29.85,-9999.0,WSW,12.7,18.4,N/A,,Overcast,250,2013-01-27 15:56:00
9:16 AM,35.6,28.4,75,29.86,-9999.0,WSW,10.4,-,N/A,,Overcast,250,2013-01-27 16:16:00
9:36 AM,37.4,28.4,70,29.85,-9999.0,West,9.2,-,N/A,,Overcast,280,2013-01-27 16:36:00
9:55 AM,37.4,30.2,75,29.86,-9999.0,West,9.2,-,N/A,,Overcast,280,2013-01-27 16:55:00
10:16 AM,37.4,28.4,70,29.87,-9999.0,Calm,Calm,-,N/A,,Overcast,0,2013-01-27 17:16:00
10:36 AM,37.4,28.4,70,29.87,-9999.0,SE,3.5,-,N/A,,Overcast,140,2013-01-27 17:36:00
10:56 AM,37.4,28.4,70,29.88,-9999.0,SSE,5.8,-,N/A,,Overcast,160,2013-01-27 17:56:00
11:16 AM,37.4,28.4,70,29.87,-9999.0,Calm,Calm,-,N/A,,Overcast,0,2013-01-27 18:16:00
11:36 AM,39.2,28.4,65,29.87,-9999.0,WNW,3.5,-,N/A,,Overcast,290,2013-01-27 18:36:00
11:55 AM,41.0,28.4,61,29.86,-9999.0,NNW,3.5,-,N/A,,Overcast,340,2013-01-27 18:55:00
12:15 PM,41.0,28.4,61,29.86,-9999.0,NE,5.8,-,N/A,,Overcast,50,2013-01-27 19:15:00
12:35 PM,44.6,28.4,53,29.85,-9999.0,ESE,4.6,-,N/A,,Overcast,120,2013-01-27 19:35:00
12:56 PM,44.6,28.4,53,29.83,-9999.0,ESE,5.8,-,N/A,,Overcast,120,2013-01-27 19:56:00
1:15 PM,44.6,28.4,53,29.82,-9999.0,NW,3.5,-,N/A,,Mostly Cloudy,310,2013-01-27 20:15:00
1:36 PM,44.6,28.4,53,29.81,-9999.0,Calm,Calm,-,N/A,,Mostly Cloudy,0,2013-01-27 20:36:00
1:56 PM,42.8,28.4,57,29.81,-9999.0,ESE,4.6,-,N/A,,Scattered Clouds,120,2013-01-27 20:56:00
2:16 PM,44.6,26.6,49,29.79,-9999.0,WSW,19.6,28.8,N/A,,Clear,240,2013-01-27 21:16:00
2:36 PM,42.8,23.0,46,29.79,-9999.0,WSW,21.9,29.9,N/A,,Clear,240,2013-01-27 21:36:00
2:56 PM,42.8,24.8,49,29.80,-9999.0,WSW,13.8,21.9,N/A,,Clear,250,2013-01-27 21:56:00
3:16 PM,42.8,24.8,49,29.80,-9999.0,SW,11.5,-,N/A,,Clear,230,2013-01-27 22:16:00
3:36 PM,42.8,23.0,46,29.80,-9999.0,West,21.9,26.5,N/A,,Clear,260,2013-01-27 22:36:00
3:55 PM,42.8,21.2,42,29.80,-9999.0,WSW,11.5,19.6,N/A,,Clear,250,2013-01-27 22:55:00
4:16 PM,42.8,21.2,42,29.80,-9999.0,WSW,23.0,31.1,N/A,,Clear,250,2013-01-27 23:16:00
4:36 PM,41.0,19.4,42,29.80,-9999.0,WSW,19.6,31.1,N/A,,Clear,250,2013-01-27 23:36:00
4:56 PM,41.0,19.4,42,29.80,-9999.0,WSW,19.6,31.1,N/A,,Clear,240,2013-01-27 23:56:00
5:15 PM,39.2,21.2,49,29.81,-9999.0,WSW,16.1,33.4,N/A,,Clear,250,2013-01-28 00:15:00
5:36 PM,37.4,21.2,52,29.81,-9999.0,WSW,25.3,34.5,N/A,,Clear,250,2013-01-28 00:36:00
5:56 PM,39.2,19.4,45,29.82,-9999.0,West,21.9,28.8,N/A,,Clear,260,2013-01-28 00:56:00
6:15 PM,37.4,21.2,52,29.82,-9999.0,WSW,19.6,26.5,N/A,,Scattered Clouds,240,2013-01-28 01:15:00
6:35 PM,37.4,21.2,52,29.83,-9999.0,WSW,15.0,24.2,N/A,,Scattered Clouds,240,2013-01-28 01:35:00
6:56 PM,37.4,21.2,52,29.83,-9999.0,WSW,19.6,28.8,N/A,,Clear,250,2013-01-28 01:56:00
7:16 PM,37.4,21.2,52,29.83,-9999.0,WSW,20.7,26.5,N/A,,Clear,240,2013-01-28 02:16:00
7:36 PM,37.4,21.2,52,29.83,-9999.0,WSW,18.4,29.9,N/A,,Clear,240,2013-01-28 02:36:00
7:56 PM,37.4,21.2,52,29.83,-9999.0,SW,19.6,27.6,N/A,,Clear,230,2013-01-28 02:56:00
8:15 PM,37.4,19.4,48,29.82,-9999.0,SW,11.5,24.2,N/A,,Clear,230,2013-01-28 03:15:00
8:36 PM,35.6,21.2,56,29.80,-9999.0,WSW,5.8,-,N/A,,Clear,250,2013-01-28 03:36:00
8:56 PM,33.8,21.2,60,29.80,-9999.0,WSW,5.8,-,N/A,,Clear,240,2013-01-28 03:56:00
9:16 PM,33.8,19.4,56,29.79,-9999.0,SSE,4.6,-,N/A,,Clear,150,2013-01-28 04:16:00
9:36 PM,33.8,19.4,56,29.79,-9999.0,Calm,Calm,-,N/A,,Clear,0,2013-01-28 04:36:00
9:55 PM,30.2,19.4,64,29.79,-9999.0,NE,3.5,-,N/A,,Clear,50,2013-01-28 04:55:00
10:16 PM,30.2,21.2,69,29.80,-9999.0,ENE,4.6,-,N/A,,Scattered Clouds,70,2013-01-28 05:16:00
10:36 PM,30.2,21.2,69,29.78,-9999.0,East,5.8,-,N/A,,Scattered Clouds,90,2013-01-28 05:36:00
10:56 PM,30.2,21.2,69,29.78,-9999.0,Calm,Calm,-,N/A,,Clear,0,2013-01-28 05:56:00
11:16 PM,30.2,21.2,69,29.79,-9999.0,Calm,Calm,-,N/A,,Scattered Clouds,0,2013-01-28 06:16:00
11:36 PM,28.4,19.4,69,29.79,-9999.0,Calm,Calm,-,N/A,,Scattered Clouds,0,2013-01-28 06:36:00
11:56 PM,26.6,19.4,74,29.78,-9999.0,ESE,4.6,-,N/A,,Mostly Cloudy,110,2013-01-28 06:56:00